Terminal Aerodrome Forecast
Issued by NWS

Home | Current Version | Previous Version | Text Only | Print | Product List | Glossary On
Versions: 1 2 3 4 5 6 7 8 9 10 11 12 13 14 15 16 17
000
FTUS45 KPSR 032330
TAFBLH
TAF
KBLH 032330Z 0400/0424 35018G26KT 5SM BLDU FEW005
     FM040100 35016KT 6SM HZ SKC
     FM040400 34010KT P6SM SKC
     FM040800 34006KT P6SM SKC
     FM042100 03003KT P6SM FEW180=

USA.gov is the U.S. government's official web portal to all federal, state and local government web resources and services.